createdAt,value
2022-10-19T00:01:05.073Z,64.88
2022-10-19T00:03:33.277Z,65.23
2022-10-19T00:06:01.330Z,66.84
2022-10-19T00:08:28.952Z,66.09
2022-10-19T00:10:56.450Z,67.48
2022-10-19T00:13:23.968Z,65.25
2022-10-19T00:15:52.793Z,65.61
2022-10-19T00:18:20.425Z,65.44
2022-10-19T00:20:47.918Z,65.06
2022-10-19T00:23:15.912Z,65.84
2022-10-19T00:25:43.350Z,65.56
2022-10-19T00:28:10.946Z,65.57
2022-10-19T00:30:38.734Z,65.56
2022-10-19T00:33:07.650Z,66.63
2022-10-19T00:35:35.141Z,66.00
2022-10-19T00:38:02.606Z,65.39
2022-10-19T00:40:30.089Z,65.61
2022-10-19T00:42:57.973Z,65.64
2022-10-19T00:45:25.466Z,65.28
2022-10-19T00:47:53.004Z,65.58
2022-10-19T00:50:22.346Z,64.81
2022-10-19T00:52:49.808Z,65.84
2022-10-19T00:55:17.862Z,66.43
2022-10-19T00:57:45.406Z,65.43
2022-10-19T01:00:16.633Z,66.15
2022-10-19T01:02:44.234Z,65.50
2022-10-19T01:05:13.060Z,65.36
2022-10-19T01:07:42.065Z,64.52
2022-10-19T01:10:10.596Z,64.08
2022-10-19T01:12:52.498Z,64.16
2022-10-19T01:15:32.039Z,64.09
2022-10-19T01:18:06.684Z,64.50
2022-10-19T01:20:50.797Z,64.88
2022-10-19T01:23:39.825Z,65.53
2022-10-19T01:26:22.011Z,65.11
2022-10-19T01:29:00.601Z,65.54
2022-10-19T01:31:39.009Z,65.36
2022-10-19T01:34:11.666Z,65.70
2022-10-19T01:36:44.186Z,64.83
2022-10-19T01:39:16.159Z,65.62
2022-10-19T01:41:51.534Z,66.40
2022-10-19T01:44:26.559Z,66.40
2022-10-19T01:46:58.516Z,65.89
2022-10-19T01:49:33.521Z,65.86
2022-10-19T01:52:06.164Z,65.96
2022-10-19T01:54:38.021Z,65.54
2022-10-19T01:57:10.056Z,66.21
2022-10-19T01:59:38.753Z,65.62
2022-10-19T02:02:09.796Z,66.03
2022-10-19T02:04:39.012Z,65.85
2022-10-19T02:07:09.011Z,66.14
2022-10-19T02:09:36.915Z,65.76
2022-10-19T02:12:09.508Z,65.39
2022-10-19T02:14:41.928Z,65.18
2022-10-19T02:17:14.803Z,65.62
2022-10-19T02:19:43.066Z,64.76
2022-10-19T02:22:11.275Z,64.08
2022-10-19T02:24:38.745Z,64.15
2022-10-19T02:27:09.074Z,64.43
2022-10-19T02:29:38.873Z,64.68
2022-10-19T02:32:07.278Z,63.69
2022-10-19T02:34:37.116Z,64.53
2022-10-19T02:37:04.764Z,65.19
2022-10-19T02:39:32.502Z,65.53
2022-10-19T02:42:05.729Z,66.15
2022-10-19T02:44:40.911Z,66.34
2022-10-19T02:47:14.457Z,66.16
2022-10-19T02:49:44.619Z,65.70
2022-10-19T02:52:14.516Z,65.91
2022-10-19T02:54:44.543Z,65.77
2022-10-19T02:57:17.557Z,64.70
2022-10-19T02:59:45.106Z,65.21
2022-10-19T03:02:12.744Z,66.08
2022-10-19T03:04:41.528Z,65.20
2022-10-19T03:07:11.463Z,65.95
2022-10-19T03:09:38.965Z,65.43
2022-10-19T03:12:06.957Z,65.10
2022-10-19T03:14:34.779Z,65.18
2022-10-19T03:17:02.343Z,65.22
2022-10-19T03:19:29.882Z,65.37
2022-10-19T03:21:57.374Z,65.50
2022-10-19T03:24:26.277Z,66.03
2022-10-19T03:26:54.208Z,65.61
2022-10-19T03:29:21.680Z,65.25
2022-10-19T03:31:49.531Z,65.68
2022-10-19T03:34:17.030Z,64.93
2022-10-19T03:36:44.487Z,64.88
2022-10-19T03:39:14.491Z,64.75
2022-10-19T03:41:43.384Z,65.37
2022-10-19T03:44:12.297Z,65.29
2022-10-19T03:46:40.420Z,65.48
2022-10-19T03:49:08.915Z,65.83
2022-10-19T03:51:37.148Z,66.22
2022-10-19T03:54:06.829Z,65.87
2022-10-19T03:56:35.595Z,65.45
2022-10-19T03:59:06.141Z,65.97
2022-10-19T04:01:35.954Z,66.22
2022-10-19T04:04:05.682Z,65.96
2022-10-19T04:06:39.159Z,65.86
2022-10-19T04:09:08.581Z,65.78
2022-10-19T04:11:36.892Z,65.63
2022-10-19T04:14:06.135Z,65.33
2022-10-19T04:16:34.016Z,66.19
2022-10-19T04:19:01.701Z,66.14
2022-10-19T04:21:31.118Z,66.91
2022-10-19T04:24:02.406Z,65.98
2022-10-19T04:26:30.434Z,65.71
2022-10-19T04:28:59.323Z,66.22
2022-10-19T04:31:28.400Z,66.08
2022-10-19T04:33:56.215Z,65.63
2022-10-19T04:36:24.692Z,66.51
2022-10-19T04:38:52.658Z,65.78
2022-10-19T04:41:22.151Z,66.03
2022-10-19T04:43:54.961Z,65.22
2022-10-19T04:46:22.429Z,65.51
2022-10-19T04:48:51.577Z,65.98
2022-10-19T04:51:19.752Z,66.47
2022-10-19T04:53:47.375Z,66.39
2022-10-19T04:56:17.045Z,66.38
2022-10-19T04:58:44.733Z,66.39
2022-10-19T05:01:14.545Z,66.16
2022-10-19T05:03:42.148Z,66.04
2022-10-19T05:06:11.777Z,66.56
2022-10-19T05:08:39.771Z,66.00
2022-10-19T05:11:10.560Z,66.17
2022-10-19T05:13:38.484Z,66.46
2022-10-19T05:16:08.260Z,66.63
2022-10-19T05:18:36.486Z,66.97
2022-10-19T05:21:05.671Z,66.80
2022-10-19T05:23:35.027Z,67.65
2022-10-19T05:26:04.179Z,67.44
2022-10-19T05:28:32.125Z,67.44
2022-10-19T05:31:06.753Z,67.42
2022-10-19T05:33:34.724Z,67.28
2022-10-19T05:36:11.491Z,66.78
2022-10-19T05:38:40.542Z,67.72
2022-10-19T05:41:08.091Z,67.04
2022-10-19T05:43:35.685Z,66.68
2022-10-19T05:46:07.935Z,67.59
2022-10-19T05:48:35.994Z,66.99
2022-10-19T05:51:06.266Z,67.08
2022-10-19T05:53:35.137Z,66.98
2022-10-19T05:56:05.577Z,67.12
2022-10-19T05:58:33.465Z,66.83
2022-10-19T06:01:02.561Z,66.88
2022-10-19T06:03:30.962Z,67.18
2022-10-19T06:05:59.517Z,67.02
2022-10-19T06:08:27.160Z,66.97
2022-10-19T06:11:04.817Z,67.21
2022-10-19T06:13:33.666Z,67.16
2022-10-19T06:16:01.168Z,66.94
2022-10-19T06:18:28.625Z,66.48
2022-10-19T06:20:56.427Z,65.96
2022-10-19T06:23:23.906Z,66.40
2022-10-19T06:25:51.391Z,66.42
2022-10-19T06:28:18.859Z,66.75
2022-10-19T06:30:47.902Z,66.50
2022-10-19T06:33:15.540Z,66.70
2022-10-19T06:35:43.237Z,66.25
2022-10-19T06:38:10.707Z,67.12
2022-10-19T06:40:38.188Z,66.61
2022-10-19T06:43:05.677Z,66.77
2022-10-19T06:45:35.868Z,67.30
2022-10-19T06:48:07.601Z,67.53
2022-10-19T06:50:35.490Z,67.33
2022-10-19T06:53:02.971Z,67.44
2022-10-19T06:55:30.416Z,66.69
2022-10-19T06:58:01.520Z,67.45
2022-10-19T07:00:29.477Z,67.20
2022-10-19T07:02:57.272Z,67.31
2022-10-19T07:05:26.075Z,66.12
2022-10-19T07:07:53.591Z,66.67
2022-10-19T07:10:21.114Z,66.67
2022-10-19T07:12:48.577Z,67.52
2022-10-19T07:15:16.200Z,66.79
2022-10-19T07:17:43.659Z,65.90
2022-10-19T07:20:11.694Z,66.35
2022-10-19T07:22:40.475Z,66.29
2022-10-19T07:25:08.617Z,65.92
2022-10-19T07:27:38.889Z,66.06
2022-10-19T07:30:07.530Z,66.30
2022-10-19T07:32:35.006Z,66.39
2022-10-19T07:35:02.505Z,66.61
2022-10-19T07:37:30.026Z,66.65
2022-10-19T07:39:58.844Z,66.14
2022-10-19T07:42:26.417Z,66.72
2022-10-19T07:44:53.887Z,67.23
2022-10-19T07:47:21.339Z,66.79
2022-10-19T07:49:49.145Z,67.28
2022-10-19T07:52:16.970Z,67.42
2022-10-19T07:54:44.499Z,67.59
2022-10-19T07:57:13.513Z,67.07
2022-10-19T07:59:41.017Z,67.61
2022-10-19T08:02:15.587Z,67.74
2022-10-19T08:04:59.605Z,67.84
2022-10-19T08:07:28.502Z,67.75
2022-10-19T08:09:56.057Z,66.87
2022-10-19T08:12:24.953Z,67.50
2022-10-19T08:14:52.435Z,66.72
2022-10-19T08:17:19.926Z,67.99
2022-10-19T08:19:47.776Z,68.03
2022-10-19T08:22:15.269Z,67.61
2022-10-19T08:24:42.779Z,67.86
2022-10-19T08:27:10.285Z,68.05
2022-10-19T08:29:39.118Z,68.25
2022-10-19T08:32:06.775Z,68.39
2022-10-19T08:34:34.372Z,68.42
2022-10-19T08:37:10.087Z,67.73
2022-10-19T08:39:47.379Z,67.75
2022-10-19T08:42:18.937Z,68.25
2022-10-19T08:45:04.711Z,68.76
2022-10-19T08:47:46.065Z,67.98
2022-10-19T08:50:19.636Z,68.18
2022-10-19T08:52:50.846Z,68.07
2022-10-19T08:55:23.167Z,68.18
2022-10-19T08:57:59.796Z,68.25
2022-10-19T09:03:22.966Z,67.59
2022-10-19T09:06:09.633Z,67.27
2022-10-19T09:08:39.971Z,67.42
2022-10-19T09:11:09.671Z,66.91
2022-10-19T09:14:03.842Z,67.11
2022-10-19T09:16:31.511Z,66.46
2022-10-19T09:18:59.275Z,65.76
2022-10-19T09:21:40.898Z,66.21
2022-10-19T09:24:27.863Z,65.16
2022-10-19T09:26:58.307Z,66.15
2022-10-19T09:29:30.549Z,65.83
2022-10-19T09:32:01.728Z,65.38
2022-10-19T09:34:33.885Z,65.23
2022-10-19T09:37:01.581Z,64.98
2022-10-19T09:39:30.954Z,65.18
2022-10-19T09:42:05.664Z,64.94
2022-10-19T09:44:33.497Z,63.81
2022-10-19T09:47:20.915Z,64.26
2022-10-19T09:49:49.843Z,63.67
2022-10-19T09:52:25.991Z,64.22
2022-10-19T09:55:02.036Z,64.83
2022-10-19T09:57:30.197Z,63.06
2022-10-19T09:59:57.872Z,63.28
2022-10-19T10:02:33.255Z,62.15
2022-10-19T10:05:07.256Z,62.38
2022-10-19T10:07:38.225Z,63.04
2022-10-19T10:10:11.939Z,62.49
2022-10-19T10:12:41.783Z,61.88
2022-10-19T10:15:09.994Z,62.55
2022-10-19T10:17:38.866Z,61.81
2022-10-19T10:20:20.774Z,62.16
2022-10-19T10:22:56.854Z,61.62
2022-10-19T10:25:29.384Z,61.39
2022-10-19T10:28:02.989Z,60.94
2022-10-19T10:30:34.714Z,60.56
2022-10-19T10:33:13.333Z,60.73
2022-10-19T10:35:53.608Z,60.43
2022-10-19T10:38:26.200Z,59.98
2022-10-19T10:40:57.649Z,60.58
2022-10-19T10:43:30.505Z,59.87
2022-10-19T10:46:02.682Z,59.68
2022-10-19T10:48:34.221Z,59.79
2022-10-19T10:51:02.595Z,59.18
2022-10-19T10:53:36.307Z,59.12
2022-10-19T10:56:05.164Z,59.28
2022-10-19T10:58:39.806Z,59.14
2022-10-19T11:01:19.026Z,58.98
2022-10-19T11:03:53.759Z,58.66
2022-10-19T11:06:25.215Z,59.03
2022-10-19T11:09:00.333Z,58.62
2022-10-19T11:11:30.832Z,58.73
2022-10-19T11:14:09.343Z,58.75
2022-10-19T11:16:43.056Z,58.15
2022-10-19T11:19:18.601Z,58.21
2022-10-19T11:21:53.386Z,56.79
2022-10-19T11:27:11.203Z,57.42
2022-10-19T11:29:58.253Z,57.52
2022-10-19T11:32:35.230Z,57.20
2022-10-19T11:35:21.807Z,56.77
2022-10-19T11:38:18.756Z,57.18
2022-10-19T11:41:16.763Z,56.97
2022-10-19T11:43:56.422Z,56.14
2022-10-19T11:46:31.411Z,56.79
2022-10-19T11:49:14.349Z,55.64
2022-10-19T11:51:51.552Z,56.10
2022-10-19T11:54:36.008Z,56.48
2022-10-19T11:57:13.714Z,56.27
2022-10-19T12:00:00.216Z,56.01
2022-10-19T12:03:09.006Z,55.81
2022-10-19T12:05:43.561Z,55.86
2022-10-19T12:08:25.340Z,55.42
2022-10-19T12:11:02.960Z,56.30
2022-10-19T12:13:44.384Z,54.85
2022-10-19T12:16:14.136Z,54.84
2022-10-19T12:18:44.472Z,56.00
2022-10-19T12:21:20.672Z,55.33
2022-10-19T12:23:49.788Z,55.35
2022-10-19T12:26:20.869Z,54.95
2022-10-19T12:28:51.776Z,54.81
2022-10-19T12:31:19.887Z,55.28
2022-10-19T12:33:56.671Z,54.97
2022-10-19T12:36:35.117Z,54.31
2022-10-19T12:39:13.146Z,54.11
2022-10-19T12:41:46.366Z,54.51
2022-10-19T12:44:42.031Z,54.04
2022-10-19T12:47:12.581Z,54.28
2022-10-19T12:49:46.202Z,54.32
2022-10-19T12:52:15.022Z,54.40
2022-10-19T12:54:44.832Z,53.40
2022-10-19T12:57:26.944Z,54.90
2022-10-19T13:00:05.072Z,54.35
2022-10-19T13:02:35.100Z,53.75
2022-10-19T13:05:03.311Z,53.95
2022-10-19T13:07:34.370Z,53.74
2022-10-19T13:10:07.058Z,53.91
2022-10-19T13:12:48.210Z,54.03
2022-10-19T13:16:02.396Z,53.94
2022-10-19T13:19:09.389Z,52.88
2022-10-19T13:22:02.858Z,53.36
2022-10-19T13:24:33.922Z,53.09
2022-10-19T13:27:36.121Z,52.89
2022-10-19T13:30:04.020Z,53.09
2022-10-19T13:32:43.193Z,53.67
2022-10-19T13:35:31.254Z,53.55
2022-10-19T13:38:20.934Z,53.33
2022-10-19T13:41:01.072Z,53.14
2022-10-19T13:43:33.345Z,53.23
2022-10-19T13:46:06.905Z,53.72
2022-10-19T13:48:54.062Z,53.27
2022-10-19T13:51:32.051Z,53.41
2022-10-19T13:54:10.643Z,52.77
2022-10-19T13:56:59.682Z,53.27
2022-10-19T13:59:56.590Z,53.93
2022-10-19T14:02:50.739Z,53.72
2022-10-19T14:08:21.239Z,54.03
2022-10-19T14:11:00.993Z,54.16
2022-10-19T14:13:29.716Z,54.07
2022-10-19T14:16:01.388Z,54.08
2022-10-19T14:18:31.574Z,53.67
2022-10-19T14:21:00.795Z,54.15
2022-10-19T14:23:30.214Z,53.63
2022-10-19T14:26:00.926Z,53.62
2022-10-19T14:28:29.156Z,54.06
2022-10-19T14:31:00.785Z,53.42
2022-10-19T14:33:30.108Z,55.08
2022-10-19T14:35:58.004Z,54.77
2022-10-19T14:38:30.786Z,54.74
2022-10-19T14:40:58.336Z,54.01
2022-10-19T14:43:28.735Z,55.01
2022-10-19T14:46:13.307Z,55.09
2022-10-19T14:48:42.803Z,54.84
2022-10-19T14:51:24.069Z,55.30
2022-10-19T14:53:55.613Z,56.16
2022-10-19T14:56:28.438Z,55.63
2022-10-19T14:58:58.879Z,56.26
2022-10-19T15:01:27.885Z,55.45
2022-10-19T15:03:56.288Z,55.27
2022-10-19T15:06:26.565Z,55.54
2022-10-19T15:08:56.192Z,55.93
2022-10-19T15:11:29.443Z,55.71
2022-10-19T15:14:02.188Z,55.86
2022-10-19T15:16:34.197Z,56.15
2022-10-19T15:19:05.265Z,55.82
2022-10-19T15:21:33.788Z,56.81
2022-10-19T15:24:09.762Z,56.27
2022-10-19T15:26:38.013Z,55.96
2022-10-19T15:29:09.961Z,56.39
2022-10-19T15:31:38.823Z,56.22
2022-10-19T15:34:06.348Z,56.14
2022-10-19T15:36:33.981Z,56.73
2022-10-19T15:39:18.293Z,56.52
2022-10-19T15:41:53.311Z,56.22
2022-10-19T15:44:33.663Z,56.66
2022-10-19T15:47:23.680Z,56.72
2022-10-19T15:49:57.041Z,56.90
2022-10-19T15:52:26.265Z,57.39
2022-10-19T15:54:55.088Z,56.64
2022-10-19T15:57:29.664Z,57.03
2022-10-19T15:59:59.203Z,57.31
2022-10-19T16:02:28.134Z,56.98
2022-10-19T16:04:56.083Z,57.04
2022-10-19T16:07:27.749Z,57.67
2022-10-19T16:09:55.615Z,57.40
2022-10-19T16:12:23.799Z,57.84
2022-10-19T16:14:51.529Z,57.51
2022-10-19T16:17:19.093Z,57.82
2022-10-19T16:19:48.486Z,58.34
2022-10-19T16:22:16.863Z,58.27
2022-10-19T16:24:44.562Z,57.77
2022-10-19T16:27:14.988Z,58.34
2022-10-19T16:29:42.806Z,58.36
2022-10-19T16:32:10.292Z,58.70
2022-10-19T16:34:37.977Z,58.96
2022-10-19T16:37:07.432Z,58.82
2022-10-19T16:39:35.234Z,58.81
2022-10-19T16:42:02.802Z,58.98
2022-10-19T16:44:30.796Z,59.00
2022-10-19T16:46:58.834Z,59.70
2022-10-19T16:49:26.820Z,60.06
2022-10-19T16:51:57.246Z,60.59
2022-10-19T16:54:27.149Z,60.66
2022-10-19T16:56:55.499Z,60.00
2022-10-19T16:59:23.551Z,60.08
2022-10-19T17:01:51.505Z,60.32
2022-10-19T17:04:19.161Z,60.54
2022-10-19T17:06:46.662Z,60.46
2022-10-19T17:12:03.042Z,61.00
2022-10-19T17:14:30.493Z,60.80
2022-10-19T17:16:58.014Z,60.89
2022-10-19T17:19:25.518Z,60.93
2022-10-19T17:21:56.456Z,60.39
2022-10-19T17:24:23.950Z,60.33
2022-10-19T17:26:53.186Z,60.57
2022-10-19T17:29:23.419Z,60.32
2022-10-19T17:31:51.476Z,60.34
2022-10-19T17:34:19.685Z,60.69
2022-10-19T17:36:47.870Z,60.56
2022-10-19T17:39:18.458Z,60.58
2022-10-19T17:41:46.493Z,60.26
2022-10-19T17:44:14.460Z,60.02
2022-10-19T17:46:43.658Z,59.90
2022-10-19T17:49:11.674Z,59.97
2022-10-19T17:51:39.960Z,60.41
2022-10-19T17:54:12.071Z,60.49
2022-10-19T17:56:40.891Z,60.70
2022-10-19T17:59:09.067Z,60.47
2022-10-19T18:01:37.488Z,60.59
2022-10-19T18:04:06.649Z,60.93
2022-10-19T18:06:35.689Z,60.65
2022-10-19T18:09:05.523Z,61.01
2022-10-19T18:11:35.955Z,60.75
2022-10-19T18:14:04.259Z,61.26
2022-10-19T18:16:34.015Z,61.33
2022-10-19T18:19:03.076Z,61.54
2022-10-19T18:21:34.663Z,61.41
2022-10-19T18:24:03.492Z,61.59
2022-10-19T18:26:33.366Z,61.61
2022-10-19T18:29:01.876Z,61.46
2022-10-19T18:31:31.415Z,61.25
2022-10-19T18:34:00.939Z,61.05
2022-10-19T18:36:29.083Z,61.20
2022-10-19T18:39:00.675Z,61.04
2022-10-19T18:41:29.625Z,61.58
2022-10-19T18:43:58.506Z,62.01
2022-10-19T18:46:27.166Z,61.82
2022-10-19T18:48:54.756Z,61.92
2022-10-19T18:51:24.008Z,61.80
2022-10-19T18:53:51.803Z,61.63
2022-10-19T18:56:22.730Z,61.91
2022-10-19T18:58:50.519Z,62.10
2022-10-19T19:01:19.873Z,61.99
2022-10-19T19:03:50.019Z,62.12
2022-10-19T19:06:19.626Z,61.79
2022-10-19T19:08:47.517Z,61.97
2022-10-19T19:11:17.070Z,61.98
2022-10-19T19:13:49.928Z,62.14
2022-10-19T19:16:17.744Z,62.63
2022-10-19T19:18:45.497Z,62.46
2022-10-19T19:21:17.769Z,61.95
2022-10-19T19:23:45.850Z,61.69
2022-10-19T19:26:15.108Z,62.05
2022-10-19T19:28:47.645Z,62.37
2022-10-19T19:31:20.551Z,62.72
2022-10-19T19:33:48.982Z,61.77
2022-10-19T19:36:18.596Z,61.98
2022-10-19T19:38:46.186Z,62.21
2022-10-19T19:41:15.837Z,61.99
2022-10-19T19:43:44.186Z,61.95
2022-10-19T19:46:13.977Z,61.61
2022-10-19T19:48:45.036Z,61.66
2022-10-19T19:51:14.129Z,62.14
2022-10-19T19:53:41.768Z,61.75
2022-10-19T19:56:11.070Z,62.04
2022-10-19T19:58:38.795Z,62.17
2022-10-19T20:01:12.344Z,62.46
2022-10-19T20:03:43.268Z,62.91
2022-10-19T20:06:11.684Z,62.80
2022-10-19T20:08:39.476Z,62.87
2022-10-19T20:11:09.202Z,63.08
2022-10-19T20:13:37.599Z,62.85
2022-10-19T20:16:08.130Z,62.95
2022-10-19T20:18:35.898Z,63.56
2022-10-19T20:21:06.348Z,62.43
2022-10-19T20:23:34.305Z,62.57
2022-10-19T20:26:02.085Z,62.20
2022-10-19T20:28:29.836Z,62.31
2022-10-19T20:31:01.640Z,62.66
2022-10-19T20:33:31.067Z,63.17
2022-10-19T20:36:06.300Z,64.25
2022-10-19T20:38:34.969Z,63.77
2022-10-19T20:41:09.358Z,65.42
2022-10-19T20:43:40.095Z,64.54
2022-10-19T20:46:11.279Z,64.28
2022-10-19T20:48:39.569Z,64.18
2022-10-19T20:51:11.674Z,64.34
2022-10-19T20:53:41.041Z,63.97
2022-10-19T20:56:13.928Z,64.72
2022-10-19T20:58:44.578Z,64.13
2022-10-19T21:01:15.899Z,63.93
2022-10-19T21:03:49.428Z,64.52
2022-10-19T21:06:17.172Z,64.44
2022-10-19T21:08:49.096Z,64.35
2022-10-19T21:11:18.796Z,64.53
2022-10-19T21:13:53.201Z,63.65
2022-10-19T21:16:22.961Z,64.72
2022-10-19T21:18:54.299Z,63.15
2022-10-19T21:21:24.313Z,64.18
2022-10-19T21:23:57.259Z,64.08
2022-10-19T21:26:29.239Z,64.23
2022-10-19T21:28:59.132Z,63.90
2022-10-19T21:31:29.581Z,64.35
2022-10-19T21:34:04.408Z,63.77
2022-10-19T21:36:31.872Z,63.70
2022-10-19T21:39:11.630Z,64.20
2022-10-19T21:41:41.658Z,63.83
2022-10-19T21:44:09.688Z,63.49
2022-10-19T21:46:37.431Z,63.80
2022-10-19T21:49:05.060Z,63.56
2022-10-19T21:51:40.265Z,64.05
2022-10-19T21:54:08.612Z,63.36
2022-10-19T21:56:40.230Z,63.49
2022-10-19T21:59:07.725Z,63.90
2022-10-19T22:01:40.362Z,63.30
2022-10-19T22:04:11.972Z,62.34
2022-10-19T22:06:39.729Z,64.04
2022-10-19T22:09:11.962Z,62.73
2022-10-19T22:11:43.224Z,62.51
2022-10-19T22:14:12.454Z,62.95
2022-10-19T22:16:41.245Z,62.74
2022-10-19T22:19:09.896Z,63.97
2022-10-19T22:24:13.634Z,63.17
2022-10-19T22:26:44.778Z,63.41
2022-10-19T22:29:12.569Z,62.79
2022-10-19T22:31:40.713Z,64.20
2022-10-19T22:34:10.254Z,64.05
2022-10-19T22:36:37.984Z,64.97
2022-10-19T22:39:06.025Z,65.84
2022-10-19T22:41:33.543Z,64.65
2022-10-19T22:44:02.477Z,64.40
2022-10-19T22:46:30.036Z,64.62
2022-10-19T22:48:57.645Z,64.86
2022-10-19T22:51:25.226Z,65.00
2022-10-19T22:53:52.784Z,64.55
2022-10-19T22:56:20.273Z,64.47
2022-10-19T22:58:47.817Z,64.39
2022-10-19T23:01:17.477Z,63.75
2022-10-19T23:03:45.401Z,63.74
2022-10-19T23:06:15.596Z,63.70
2022-10-19T23:08:43.339Z,64.16
2022-10-19T23:11:11.689Z,63.46
2022-10-19T23:13:39.481Z,63.30
2022-10-19T23:16:07.806Z,63.52
2022-10-19T23:18:38.736Z,64.06
2022-10-19T23:21:08.535Z,65.05
2022-10-19T23:23:36.834Z,64.44
2022-10-19T23:26:06.712Z,65.13
2022-10-19T23:28:36.178Z,65.35
2022-10-19T23:31:05.888Z,64.98
2022-10-19T23:33:34.160Z,65.28
2022-10-19T23:36:09.058Z,65.35
2022-10-19T23:38:37.236Z,65.82
2022-10-19T23:41:05.151Z,66.34
2022-10-19T23:43:33.004Z,65.83
2022-10-19T23:46:00.755Z,64.60
2022-10-19T23:48:28.497Z,65.85
2022-10-19T23:51:00.057Z,64.43
2022-10-19T23:53:29.983Z,64.10
2022-10-19T23:56:00.876Z,64.24
2022-10-19T23:58:29.018Z,63.80
